sensor_id;sensor_type;location;lat;lon;timestamp;pressure;altitude;pressure_sealevel;temperature;humidity
6194;BME280;3130;41.564;23.280;2023-04-04T00:01:26;97411.81;;;10.81;100.00
6194;BME280;3130;41.564;23.280;2023-04-04T00:03:53;97373.56;;;10.59;100.00
6194;BME280;3130;41.564;23.280;2023-04-04T00:06:20;97373.41;;;10.51;100.00
6194;BME280;3130;41.564;23.280;2023-04-04T00:08:47;97388.44;;;10.65;100.00
6194;BME280;3130;41.564;23.280;2023-04-04T00:11:16;97345.44;;;10.08;100.00
6194;BME280;3130;41.564;23.280;2023-04-04T00:13:43;97390.75;;;10.47;100.00
6194;BME280;3130;41.564;23.280;2023-04-04T00:16:10;97409.72;;;10.35;100.00
6194;BME280;3130;41.564;23.280;2023-04-04T00:18:38;97408.97;;;10.44;100.00
6194;BME280;3130;41.564;23.280;2023-04-04T00:21:05;97403.56;;;10.47;100.00
6194;BME280;3130;41.564;23.280;2023-04-04T00:23:32;97398.19;;;10.50;100.00
6194;BME280;3130;41.564;23.280;2023-04-04T00:25:59;97401.16;;;10.46;100.00
6194;BME280;3130;41.564;23.280;2023-04-04T00:28:27;97406.31;;;10.55;100.00
6194;BME280;3130;41.564;23.280;2023-04-04T00:30:54;97403.75;;;10.55;100.00
6194;BME280;3130;41.564;23.280;2023-04-04T00:33:21;97407.50;;;10.51;100.00
6194;BME280;3130;41.564;23.280;2023-04-04T00:35:48;97405.09;;;10.50;100.00
6194;BME280;3130;41.564;23.280;2023-04-04T00:38:15;97409.03;;;10.54;100.00
6194;BME280;3130;41.564;23.280;2023-04-04T00:40:45;97389.56;;;10.51;100.00
6194;BME280;3130;41.564;23.280;2023-04-04T00:43:13;97345.47;;;10.18;100.00
6194;BME280;3130;41.564;23.280;2023-04-04T00:45:42;97397.94;;;10.53;100.00
6194;BME280;3130;41.564;23.280;2023-04-04T00:48:09;97392.09;;;10.42;100.00
6194;BME280;3130;41.564;23.280;2023-04-04T00:50:36;97364.59;;;10.14;100.00
6194;BME280;3130;41.564;23.280;2023-04-04T00:53:03;97398.75;;;10.44;100.00
6194;BME280;3130;41.564;23.280;2023-04-04T00:55:30;97397.75;;;10.45;100.00
6194;BME280;3130;41.564;23.280;2023-04-04T00:57:58;97400.50;;;10.53;100.00
6194;BME280;3130;41.564;23.280;2023-04-04T01:00:25;97403.75;;;10.55;100.00
6194;BME280;3130;41.564;23.280;2023-04-04T01:02:54;97414.97;;;10.54;100.00
6194;BME280;3130;41.564;23.280;2023-04-04T01:05:21;97411.25;;;10.47;100.00
6194;BME280;3130;41.564;23.280;2023-04-04T01:07:48;97408.63;;;10.58;100.00
6194;BME280;3130;41.564;23.280;2023-04-04T01:10:16;97404.00;;;10.52;100.00
6194;BME280;3130;41.564;23.280;2023-04-04T01:12:43;97400.94;;;10.58;100.00
6194;BME280;3130;41.564;23.280;2023-04-04T01:15:11;97396.38;;;10.62;100.00
6194;BME280;3130;41.564;23.280;2023-04-04T01:17:38;97394.69;;;10.51;100.00
6194;BME280;3130;41.564;23.280;2023-04-04T01:20:10;97397.00;;;10.54;100.00
6194;BME280;3130;41.564;23.280;2023-04-04T01:22:39;97396.03;;;10.46;100.00
6194;BME280;3130;41.564;23.280;2023-04-04T01:25:07;97353.66;;;10.12;100.00
6194;BME280;3130;41.564;23.280;2023-04-04T01:27:36;97387.75;;;10.12;100.00
6194;BME280;3130;41.564;23.280;2023-04-04T01:30:04;97374.69;;;10.15;100.00
6194;BME280;3130;41.564;23.280;2023-04-04T01:32:35;97389.25;;;10.35;100.00
6194;BME280;3130;41.564;23.280;2023-04-04T01:35:12;97378.19;;;10.35;100.00
6194;BME280;3130;41.564;23.280;2023-04-04T01:37:50;97389.28;;;10.45;100.00
6194;BME280;3130;41.564;23.280;2023-04-04T01:40:24;97352.84;;;10.11;100.00
6194;BME280;3130;41.564;23.280;2023-04-04T01:42:54;97390.16;;;10.34;100.00
6194;BME280;3130;41.564;23.280;2023-04-04T01:45:22;97383.72;;;10.40;100.00
6194;BME280;3130;41.564;23.280;2023-04-04T01:47:49;97360.41;;;10.13;100.00
6194;BME280;3130;41.564;23.280;2023-04-04T01:50:16;97380.75;;;10.35;100.00
6194;BME280;3130;41.564;23.280;2023-04-04T01:52:43;97365.44;;;10.24;100.00
6194;BME280;3130;41.564;23.280;2023-04-04T01:55:10;97380.16;;;10.52;100.00
6194;BME280;3130;41.564;23.280;2023-04-04T01:57:37;97361.81;;;10.56;100.00
6194;BME280;3130;41.564;23.280;2023-04-04T02:00:07;97367.41;;;10.71;100.00
6194;BME280;3130;41.564;23.280;2023-04-04T02:02:35;97375.63;;;10.65;100.00
6194;BME280;3130;41.564;23.280;2023-04-04T02:05:02;97387.88;;;10.61;100.00
6194;BME280;3130;41.564;23.280;2023-04-04T02:07:29;97384.09;;;10.65;100.00
6194;BME280;3130;41.564;23.280;2023-04-04T02:09:56;97380.06;;;10.63;100.00
6194;BME280;3130;41.564;23.280;2023-04-04T02:12:23;97380.00;;;10.53;100.00
6194;BME280;3130;41.564;23.280;2023-04-04T02:14:50;97375.72;;;10.54;100.00
6194;BME280;3130;41.564;23.280;2023-04-04T02:17:19;97371.81;;;10.59;100.00
6194;BME280;3130;41.564;23.280;2023-04-04T02:19:46;97366.72;;;10.69;100.00
6194;BME280;3130;41.564;23.280;2023-04-04T02:22:14;97371.47;;;10.73;100.00
6194;BME280;3130;41.564;23.280;2023-04-04T02:24:41;97369.16;;;10.70;100.00
6194;BME280;3130;41.564;23.280;2023-04-04T02:27:08;97361.97;;;10.64;100.00
6194;BME280;3130;41.564;23.280;2023-04-04T02:29:35;97364.00;;;10.61;100.00
6194;BME280;3130;41.564;23.280;2023-04-04T02:32:02;97373.81;;;10.56;100.00
6194;BME280;3130;41.564;23.280;2023-04-04T02:34:31;97375.41;;;10.47;100.00
6194;BME280;3130;41.564;23.280;2023-04-04T02:36:58;97371.75;;;10.40;100.00
6194;BME280;3130;41.564;23.280;2023-04-04T02:39:25;97260.28;;;9.66;100.00
6194;BME280;3130;41.564;23.280;2023-04-04T02:41:52;97263.78;;;9.65;100.00
6194;BME280;3130;41.564;23.280;2023-04-04T02:44:19;97388.00;;;10.30;100.00
6194;BME280;3130;41.564;23.280;2023-04-04T02:46:46;97368.84;;;10.04;100.00
6194;BME280;3130;41.564;23.280;2023-04-04T02:49:14;97389.13;;;10.16;100.00
6194;BME280;3130;41.564;23.280;2023-04-04T02:51:42;97383.44;;;9.93;100.00
6194;BME280;3130;41.564;23.280;2023-04-04T02:54:09;97383.81;;;9.88;100.00
6194;BME280;3130;41.564;23.280;2023-04-04T02:56:36;97383.66;;;9.69;100.00
6194;BME280;3130;41.564;23.280;2023-04-04T02:59:04;97389.38;;;9.73;100.00
6194;BME280;3130;41.564;23.280;2023-04-04T03:01:32;97396.91;;;9.74;100.00
6194;BME280;3130;41.564;23.280;2023-04-04T03:03:59;97385.25;;;9.81;100.00
6194;BME280;3130;41.564;23.280;2023-04-04T03:06:30;97338.16;;;9.52;100.00
6194;BME280;3130;41.564;23.280;2023-04-04T03:09:00;97390.53;;;9.89;100.00
6194;BME280;3130;41.564;23.280;2023-04-04T03:11:29;97394.63;;;9.92;100.00
6194;BME280;3130;41.564;23.280;2023-04-04T03:13:56;97357.38;;;9.67;100.00
6194;BME280;3130;41.564;23.280;2023-04-04T03:16:24;97323.88;;;9.50;100.00
6194;BME280;3130;41.564;23.280;2023-04-04T03:18:51;97390.16;;;9.94;100.00
6194;BME280;3130;41.564;23.280;2023-04-04T03:21:18;97383.56;;;9.91;100.00
6194;BME280;3130;41.564;23.280;2023-04-04T03:23:45;97391.00;;;9.94;100.00
6194;BME280;3130;41.564;23.280;2023-04-04T03:26:14;97397.84;;;9.42;100.00
6194;BME280;3130;41.564;23.280;2023-04-04T03:28:41;97404.81;;;9.51;100.00
6194;BME280;3130;41.564;23.280;2023-04-04T03:31:08;97407.44;;;9.29;100.00
6194;BME280;3130;41.564;23.280;2023-04-04T03:33:35;97397.44;;;9.26;100.00
6194;BME280;3130;41.564;23.280;2023-04-04T03:36:02;97400.31;;;9.32;100.00
6194;BME280;3130;41.564;23.280;2023-04-04T03:38:30;97382.69;;;9.29;100.00
6194;BME280;3130;41.564;23.280;2023-04-04T03:41:03;97390.31;;;9.40;100.00
6194;BME280;3130;41.564;23.280;2023-04-04T03:43:32;97400.16;;;9.45;100.00
6194;BME280;3130;41.564;23.280;2023-04-04T03:46:00;97404.09;;;9.49;100.00
6194;BME280;3130;41.564;23.280;2023-04-04T03:48:27;97391.81;;;9.00;100.00
6194;BME280;3130;41.564;23.280;2023-04-04T03:50:55;97401.00;;;9.03;100.00
6194;BME280;3130;41.564;23.280;2023-04-04T03:53:23;97403.53;;;9.14;100.00
6194;BME280;3130;41.564;23.280;2023-04-04T03:55:50;97408.16;;;9.20;100.00
6194;BME280;3130;41.564;23.280;2023-04-04T03:58:18;97408.41;;;9.17;100.00
6194;BME280;3130;41.564;23.280;2023-04-04T04:00:47;97406.41;;;9.20;100.00
6194;BME280;3130;41.564;23.280;2023-04-04T04:03:14;97412.78;;;9.26;100.00
6194;BME280;3130;41.564;23.280;2023-04-04T04:05:41;97412.44;;;9.30;100.00
6194;BME280;3130;41.564;23.280;2023-04-04T04:08:08;97423.13;;;9.24;100.00
6194;BME280;3130;41.564;23.280;2023-04-04T04:10:36;97420.94;;;9.20;100.00
6194;BME280;3130;41.564;23.280;2023-04-04T04:13:03;97420.81;;;9.21;100.00
6194;BME280;3130;41.564;23.280;2023-04-04T04:15:30;97429.31;;;9.22;100.00
6194;BME280;3130;41.564;23.280;2023-04-04T04:17:58;97423.69;;;9.28;100.00
6194;BME280;3130;41.564;23.280;2023-04-04T04:20:25;97431.84;;;9.33;100.00
6194;BME280;3130;41.564;23.280;2023-04-04T04:22:52;97428.84;;;9.17;100.00
6194;BME280;3130;41.564;23.280;2023-04-04T04:25:19;97414.44;;;9.05;100.00
6194;BME280;3130;41.564;23.280;2023-04-04T04:27:46;97446.94;;;9.25;100.00
6194;BME280;3130;41.564;23.280;2023-04-04T04:30:13;97428.53;;;8.99;100.00
6194;BME280;3130;41.564;23.280;2023-04-04T04:32:41;97424.69;;;8.94;100.00
6194;BME280;3130;41.564;23.280;2023-04-04T04:35:10;97447.34;;;9.09;100.00
6194;BME280;3130;41.564;23.280;2023-04-04T04:37:37;97437.47;;;8.94;100.00
6194;BME280;3130;41.564;23.280;2023-04-04T04:40:06;97461.88;;;8.98;100.00
6194;BME280;3130;41.564;23.280;2023-04-04T04:42:33;97463.16;;;9.03;100.00
6194;BME280;3130;41.564;23.280;2023-04-04T04:45:00;97471.28;;;9.08;100.00
6194;BME280;3130;41.564;23.280;2023-04-04T04:47:29;97471.41;;;8.96;100.00
6194;BME280;3130;41.564;23.280;2023-04-04T04:49:56;97475.00;;;9.04;100.00
6194;BME280;3130;41.564;23.280;2023-04-04T04:52:24;97481.41;;;8.99;100.00
6194;BME280;3130;41.564;23.280;2023-04-04T04:54:51;97473.25;;;9.05;100.00
6194;BME280;3130;41.564;23.280;2023-04-04T04:57:20;97462.69;;;8.98;100.00
6194;BME280;3130;41.564;23.280;2023-04-04T04:59:47;97470.03;;;9.03;100.00
6194;BME280;3130;41.564;23.280;2023-04-04T05:02:14;97479.53;;;9.12;100.00
6194;BME280;3130;41.564;23.280;2023-04-04T05:04:42;97481.25;;;9.22;100.00
6194;BME280;3130;41.564;23.280;2023-04-04T05:07:10;97452.78;;;9.16;100.00
6194;BME280;3130;41.564;23.280;2023-04-04T05:09:39;97439.31;;;9.14;100.00
6194;BME280;3130;41.564;23.280;2023-04-04T05:12:06;97418.75;;;9.04;100.00
6194;BME280;3130;41.564;23.280;2023-04-04T05:14:33;97484.34;;;9.48;100.00
6194;BME280;3130;41.564;23.280;2023-04-04T05:17:00;97480.75;;;9.39;100.00
6194;BME280;3130;41.564;23.280;2023-04-04T05:19:27;97482.63;;;9.37;100.00
6194;BME280;3130;41.564;23.280;2023-04-04T05:21:54;97486.94;;;9.37;100.00
6194;BME280;3130;41.564;23.280;2023-04-04T05:24:21;97486.81;;;9.38;100.00
6194;BME280;3130;41.564;23.280;2023-04-04T05:26:50;97477.97;;;9.42;100.00
6194;BME280;3130;41.564;23.280;2023-04-04T05:29:17;97483.72;;;9.13;100.00
6194;BME280;3130;41.564;23.280;2023-04-04T05:31:44;97495.09;;;9.31;100.00
6194;BME280;3130;41.564;23.280;2023-04-04T05:34:11;97494.50;;;9.27;100.00
6194;BME280;3130;41.564;23.280;2023-04-04T05:36:38;97500.56;;;9.15;100.00
6194;BME280;3130;41.564;23.280;2023-04-04T05:39:06;97504.50;;;8.87;100.00
6194;BME280;3130;41.564;23.280;2023-04-04T05:41:33;97502.88;;;8.86;100.00
6194;BME280;3130;41.564;23.280;2023-04-04T05:44:02;97402.78;;;8.02;100.00
6194;BME280;3130;41.564;23.280;2023-04-04T05:46:29;97448.03;;;8.35;100.00
6194;BME280;3130;41.564;23.280;2023-04-04T05:48:56;97452.56;;;8.42;100.00
6194;BME280;3130;41.564;23.280;2023-04-04T05:51:23;97512.84;;;8.67;100.00
6194;BME280;3130;41.564;23.280;2023-04-04T05:53:50;97514.97;;;8.73;100.00
6194;BME280;3130;41.564;23.280;2023-04-04T05:56:17;97516.47;;;8.75;100.00
6194;BME280;3130;41.564;23.280;2023-04-04T05:58:44;97515.91;;;8.83;100.00
6194;BME280;3130;41.564;23.280;2023-04-04T06:01:13;97523.47;;;8.84;100.00
6194;BME280;3130;41.564;23.280;2023-04-04T06:03:40;97521.00;;;8.83;100.00
6194;BME280;3130;41.564;23.280;2023-04-04T06:06:07;97465.47;;;8.41;100.00
6194;BME280;3130;41.564;23.280;2023-04-04T06:08:34;97504.97;;;8.59;100.00
6194;BME280;3130;41.564;23.280;2023-04-04T06:11:01;97531.44;;;8.69;100.00
6194;BME280;3130;41.564;23.280;2023-04-04T06:13:28;97533.88;;;8.59;100.00
6194;BME280;3130;41.564;23.280;2023-04-04T06:15:56;97505.41;;;8.42;100.00
6194;BME280;3130;41.564;23.280;2023-04-04T06:18:24;97460.63;;;8.14;100.00
6194;BME280;3130;41.564;23.280;2023-04-04T06:20:51;97540.88;;;8.68;100.00
6194;BME280;3130;41.564;23.280;2023-04-04T06:23:18;97488.81;;;8.47;100.00
6194;BME280;3130;41.564;23.280;2023-04-04T06:25:46;97482.06;;;8.46;100.00
6194;BME280;3130;41.564;23.280;2023-04-04T06:28:13;97545.97;;;8.68;100.00
6194;BME280;3130;41.564;23.280;2023-04-04T06:30:43;97550.25;;;8.68;100.00
6194;BME280;3130;41.564;23.280;2023-04-04T06:33:10;97519.09;;;8.41;100.00
6194;BME280;3130;41.564;23.280;2023-04-04T06:35:38;97557.25;;;8.77;100.00
6194;BME280;3130;41.564;23.280;2023-04-04T06:38:06;97545.84;;;8.81;100.00
6194;BME280;3130;41.564;23.280;2023-04-04T06:40:34;97560.06;;;9.06;100.00
6194;BME280;3130;41.564;23.280;2023-04-04T06:43:01;97559.94;;;9.08;100.00
6194;BME280;3130;41.564;23.280;2023-04-04T06:45:29;97514.72;;;8.98;100.00
6194;BME280;3130;41.564;23.280;2023-04-04T06:47:58;97569.59;;;9.37;100.00
6194;BME280;3130;41.564;23.280;2023-04-04T06:50:28;97569.47;;;9.50;100.00
6194;BME280;3130;41.564;23.280;2023-04-04T06:52:57;97572.25;;;9.69;100.00
6194;BME280;3130;41.564;23.280;2023-04-04T06:55:25;97576.63;;;9.89;100.00
6194;BME280;3130;41.564;23.280;2023-04-04T06:57:53;97577.06;;;9.94;100.00
6194;BME280;3130;41.564;23.280;2023-04-04T07:00:21;97578.69;;;9.95;100.00
6194;BME280;3130;41.564;23.280;2023-04-04T07:02:48;97535.94;;;9.64;100.00
6194;BME280;3130;41.564;23.280;2023-04-04T07:05:15;97589.53;;;9.98;100.00
6194;BME280;3130;41.564;23.280;2023-04-04T07:07:42;97576.94;;;9.95;99.88
6194;BME280;3130;41.564;23.280;2023-04-04T07:10:12;97597.94;;;10.00;99.21
6194;BME280;3130;41.564;23.280;2023-04-04T07:12:39;97573.63;;;9.73;99.90
6194;BME280;3130;41.564;23.280;2023-04-04T07:15:07;97585.75;;;9.71;100.00
6194;BME280;3130;41.564;23.280;2023-04-04T07:17:36;97601.19;;;9.80;100.00
6194;BME280;3130;41.564;23.280;2023-04-04T07:20:04;97590.59;;;9.85;100.00
6194;BME280;3130;41.564;23.280;2023-04-04T07:22:31;97500.31;;;9.40;98.41
6194;BME280;3130;41.564;23.280;2023-04-04T07:24:58;97615.16;;;10.29;98.35
6194;BME280;3130;41.564;23.280;2023-04-04T07:27:27;97584.47;;;10.18;98.07
6194;BME280;3130;41.564;23.280;2023-04-04T07:29:54;97539.97;;;9.99;97.83
6194;BME280;3130;41.564;23.280;2023-04-04T07:32:21;97625.41;;;10.40;96.92
6194;BME280;3130;41.564;23.280;2023-04-04T07:34:49;97630.06;;;10.35;96.36
6194;BME280;3130;41.564;23.280;2023-04-04T07:37:16;97621.31;;;10.38;96.00
6194;BME280;3130;41.564;23.280;2023-04-04T07:39:44;97625.06;;;10.34;95.54
6194;BME280;3130;41.564;23.280;2023-04-04T07:42:12;97621.06;;;10.41;96.19
6194;BME280;3130;41.564;23.280;2023-04-04T07:44:40;97632.94;;;10.42;96.12
6194;BME280;3130;41.564;23.280;2023-04-04T07:47:07;97629.66;;;10.51;95.99
6194;BME280;3130;41.564;23.280;2023-04-04T07:49:35;97640.41;;;10.45;95.24
6194;BME280;3130;41.564;23.280;2023-04-04T07:52:02;97647.13;;;10.14;95.34
6194;BME280;3130;41.564;23.280;2023-04-04T07:54:29;97649.06;;;10.22;96.59
6194;BME280;3130;41.564;23.280;2023-04-04T07:56:56;97615.38;;;9.95;96.34
6194;BME280;3130;41.564;23.280;2023-04-04T07:59:23;97646.22;;;10.04;96.77
6194;BME280;3130;41.564;23.280;2023-04-04T08:01:52;97649.34;;;10.08;97.33
6194;BME280;3130;41.564;23.280;2023-04-04T08:04:19;97583.72;;;9.85;97.27
6194;BME280;3130;41.564;23.280;2023-04-04T08:06:46;97642.88;;;10.35;97.28
6194;BME280;3130;41.564;23.280;2023-04-04T08:09:13;97649.72;;;10.46;96.18
6194;BME280;3130;41.564;23.280;2023-04-04T08:11:40;97648.66;;;10.48;95.08
6194;BME280;3130;41.564;23.280;2023-04-04T08:14:08;97653.81;;;10.37;94.32
6194;BME280;3130;41.564;23.280;2023-04-04T08:16:36;97657.78;;;10.41;95.07
6194;BME280;3130;41.564;23.280;2023-04-04T08:19:05;97652.06;;;10.38;95.17
6194;BME280;3130;41.564;23.280;2023-04-04T08:21:32;97639.94;;;10.08;96.08
6194;BME280;3130;41.564;23.280;2023-04-04T08:23:59;97661.78;;;10.12;95.51
6194;BME280;3130;41.564;23.280;2023-04-04T08:26:26;97634.69;;;10.10;95.94
6194;BME280;3130;41.564;23.280;2023-04-04T08:28:54;97663.19;;;10.16;96.37
6194;BME280;3130;41.564;23.280;2023-04-04T08:31:21;97562.16;;;9.45;96.72
6194;BME280;3130;41.564;23.280;2023-04-04T08:33:48;97664.94;;;10.16;96.86
6194;BME280;3130;41.564;23.280;2023-04-04T08:36:18;97651.53;;;10.12;96.86
6194;BME280;3130;41.564;23.280;2023-04-04T08:38:45;97668.50;;;10.35;96.10
6194;BME280;3130;41.564;23.280;2023-04-04T08:41:12;97664.84;;;10.49;96.12
6194;BME280;3130;41.564;23.280;2023-04-04T08:43:42;97658.41;;;10.54;94.67
6194;BME280;3130;41.564;23.280;2023-04-04T08:46:11;97631.44;;;10.39;94.98
6194;BME280;3130;41.564;23.280;2023-04-04T08:48:41;97665.63;;;10.60;94.06
6194;BME280;3130;41.564;23.280;2023-04-04T08:51:11;97607.75;;;10.15;93.75
6194;BME280;3130;41.564;23.280;2023-04-04T08:53:41;97647.81;;;10.16;93.33
6194;BME280;3130;41.564;23.280;2023-04-04T08:56:08;97666.88;;;10.34;93.77
6194;BME280;3130;41.564;23.280;2023-04-04T08:58:36;97619.44;;;9.87;93.33
6194;BME280;3130;41.564;23.280;2023-04-04T09:01:04;97670.31;;;10.13;95.16
6194;BME280;3130;41.564;23.280;2023-04-04T09:03:33;97668.50;;;10.35;95.84
6194;BME280;3130;41.564;23.280;2023-04-04T09:06:01;97651.16;;;10.28;94.78
6194;BME280;3130;41.564;23.280;2023-04-04T09:08:30;97652.25;;;10.14;93.85
6194;BME280;3130;41.564;23.280;2023-04-04T09:11:01;97631.66;;;9.94;93.92
6194;BME280;3130;41.564;23.280;2023-04-04T09:13:29;97668.44;;;10.15;94.35
6194;BME280;3130;41.564;23.280;2023-04-04T09:15:56;97669.22;;;10.26;94.41
6194;BME280;3130;41.564;23.280;2023-04-04T09:18:24;97646.81;;;10.39;95.01
6194;BME280;3130;41.564;23.280;2023-04-04T09:20:51;97652.50;;;10.43;93.51
6194;BME280;3130;41.564;23.280;2023-04-04T09:23:19;97660.38;;;10.62;92.62
6194;BME280;3130;41.564;23.280;2023-04-04T09:25:49;97652.44;;;10.65;92.82
6194;BME280;3130;41.564;23.280;2023-04-04T09:28:19;97668.34;;;10.79;91.55
6194;BME280;3130;41.564;23.280;2023-04-04T09:30:47;97667.47;;;10.90;91.99
6194;BME280;3130;41.564;23.280;2023-04-04T09:33:16;97638.88;;;10.74;91.55
6194;BME280;3130;41.564;23.280;2023-04-04T09:35:44;97671.47;;;11.03;91.20
6194;BME280;3130;41.564;23.280;2023-04-04T09:38:12;97640.31;;;10.87;90.75
6194;BME280;3130;41.564;23.280;2023-04-04T09:40:40;97668.66;;;11.06;89.99
6194;BME280;3130;41.564;23.280;2023-04-04T09:43:08;97669.22;;;11.30;90.05
6194;BME280;3130;41.564;23.280;2023-04-04T09:45:38;97678.22;;;11.45;89.73
6194;BME280;3130;41.564;23.280;2023-04-04T09:48:06;97674.81;;;11.55;89.09
6194;BME280;3130;41.564;23.280;2023-04-04T09:50:35;97620.34;;;11.31;89.38
6194;BME280;3130;41.564;23.280;2023-04-04T09:53:02;97675.41;;;11.68;88.63
6194;BME280;3130;41.564;23.280;2023-04-04T09:55:33;97671.63;;;11.72;88.41
6194;BME280;3130;41.564;23.280;2023-04-04T09:58:11;97604.44;;;11.37;87.13
6194;BME280;3130;41.564;23.280;2023-04-04T10:00:41;97663.03;;;11.83;86.41
6194;BME280;3130;41.564;23.280;2023-04-04T10:03:12;97660.22;;;11.95;85.46
6194;BME280;3130;41.564;23.280;2023-04-04T10:05:40;97678.81;;;12.17;84.97
6194;BME280;3130;41.564;23.280;2023-04-04T10:08:14;97666.94;;;12.26;84.58
6194;BME280;3130;41.564;23.280;2023-04-04T10:10:47;97691.59;;;12.47;82.16
6194;BME280;3130;41.564;23.280;2023-04-04T10:13:22;97675.66;;;12.53;81.81
6194;BME280;3130;41.564;23.280;2023-04-04T10:15:52;97683.88;;;12.57;81.15
6194;BME280;3130;41.564;23.280;2023-04-04T10:18:21;97654.22;;;12.43;81.05
6194;BME280;3130;41.564;23.280;2023-04-04T10:20:49;97685.94;;;12.63;81.12
6194;BME280;3130;41.564;23.280;2023-04-04T10:23:16;97662.91;;;12.71;80.69
6194;BME280;3130;41.564;23.280;2023-04-04T10:25:45;97668.75;;;12.73;80.26
6194;BME280;3130;41.564;23.280;2023-04-04T10:28:14;97653.72;;;12.78;81.04
6194;BME280;3130;41.564;23.280;2023-04-04T10:30:43;97633.53;;;12.83;78.99
6194;BME280;3130;41.564;23.280;2023-04-04T10:33:21;97685.66;;;13.13;79.34
6194;BME280;3130;41.564;23.280;2023-04-04T10:35:50;97699.63;;;13.20;76.98
6194;BME280;3130;41.564;23.280;2023-04-04T10:38:27;97690.81;;;13.13;76.93
6194;BME280;3130;41.564;23.280;2023-04-04T10:40:58;97701.38;;;13.10;76.45
6194;BME280;3130;41.564;23.280;2023-04-04T10:43:28;97696.34;;;12.80;76.72
6194;BME280;3130;41.564;23.280;2023-04-04T10:46:05;97705.72;;;12.91;77.21
6194;BME280;3130;41.564;23.280;2023-04-04T10:48:35;97698.44;;;12.96;78.39
6194;BME280;3130;41.564;23.280;2023-04-04T10:51:03;97692.19;;;12.98;78.52
6194;BME280;3130;41.564;23.280;2023-04-04T10:53:31;97700.16;;;13.14;78.33
6194;BME280;3130;41.564;23.280;2023-04-04T10:55:59;97694.75;;;13.26;78.87
6194;BME280;3130;41.564;23.280;2023-04-04T10:58:27;97680.50;;;13.32;77.12
6194;BME280;3130;41.564;23.280;2023-04-04T11:00:55;97704.41;;;13.70;76.08
6194;BME280;3130;41.564;23.280;2023-04-04T11:03:22;97693.78;;;13.83;75.13
6194;BME280;3130;41.564;23.280;2023-04-04T11:05:52;97632.38;;;13.42;74.04
6194;BME280;3130;41.564;23.280;2023-04-04T11:08:26;97707.16;;;13.96;74.03
6194;BME280;3130;41.564;23.280;2023-04-04T11:10:55;97701.00;;;13.70;72.53
6194;BME280;3130;41.564;23.280;2023-04-04T11:13:25;97705.59;;;13.76;73.30
6194;BME280;3130;41.564;23.280;2023-04-04T11:15:55;97696.59;;;13.89;74.14
6194;BME280;3130;41.564;23.280;2023-04-04T11:18:44;97698.03;;;13.65;74.35
6194;BME280;3130;41.564;23.280;2023-04-04T11:21:15;97620.09;;;13.26;73.94
6194;BME280;3130;41.564;23.280;2023-04-04T11:24:12;97695.78;;;13.89;74.05
6194;BME280;3130;41.564;23.280;2023-04-04T11:26:41;97655.66;;;13.86;73.65
6194;BME280;3130;41.564;23.280;2023-04-04T11:29:19;97699.28;;;13.97;72.69
6194;BME280;3130;41.564;23.280;2023-04-04T11:31:48;97700.88;;;14.07;72.74
6194;BME280;3130;41.564;23.280;2023-04-04T11:34:29;97706.44;;;14.13;71.64
6194;BME280;3130;41.564;23.280;2023-04-04T11:36:59;97699.50;;;14.13;71.56
6194;BME280;3130;41.564;23.280;2023-04-04T11:39:46;97691.34;;;14.08;71.04
6194;BME280;3130;41.564;23.280;2023-04-04T11:42:21;97709.03;;;14.03;70.72
6194;BME280;3130;41.564;23.280;2023-04-04T11:45:01;97704.66;;;13.77;72.03
6194;BME280;3130;41.564;23.280;2023-04-04T11:47:29;97703.34;;;13.63;71.32
6194;BME280;3130;41.564;23.280;2023-04-04T11:49:58;97702.72;;;13.33;72.41
6194;BME280;3130;41.564;23.280;2023-04-04T11:52:32;97704.09;;;13.27;73.48
6194;BME280;3130;41.564;23.280;2023-04-04T11:54:59;97708.78;;;12.47;76.13
6194;BME280;3130;41.564;23.280;2023-04-04T11:57:27;97700.91;;;12.39;76.70
6194;BME280;3130;41.564;23.280;2023-04-04T11:59:54;97680.56;;;12.17;77.86
6194;BME280;3130;41.564;23.280;2023-04-04T12:02:23;97621.81;;;11.94;77.37
6194;BME280;3130;41.564;23.280;2023-04-04T12:04:52;97699.84;;;12.02;79.02
6194;BME280;3130;41.564;23.280;2023-04-04T12:07:19;97703.88;;;11.65;80.21
6194;BME280;3130;41.564;23.280;2023-04-04T12:09:51;97706.03;;;11.90;79.95
6194;BME280;3130;41.564;23.280;2023-04-04T12:12:18;97703.56;;;12.09;80.61
6194;BME280;3130;41.564;23.280;2023-04-04T12:14:45;97700.72;;;12.21;79.84
6194;BME280;3130;41.564;23.280;2023-04-04T12:17:14;97705.22;;;12.29;78.92
6194;BME280;3130;41.564;23.280;2023-04-04T12:19:42;97688.31;;;12.36;79.10
6194;BME280;3130;41.564;23.280;2023-04-04T12:22:09;97701.16;;;12.36;80.02
6194;BME280;3130;41.564;23.280;2023-04-04T12:24:36;97657.03;;;12.21;79.86
6194;BME280;3130;41.564;23.280;2023-04-04T12:27:05;97676.41;;;12.35;79.70
6194;BME280;3130;41.564;23.280;2023-04-04T12:29:33;97679.25;;;12.41;80.14
6194;BME280;3130;41.564;23.280;2023-04-04T12:32:03;97692.53;;;12.46;80.19
6194;BME280;3130;41.564;23.280;2023-04-04T12:34:32;97698.28;;;12.20;81.94
6194;BME280;3130;41.564;23.280;2023-04-04T12:37:01;97704.88;;;12.13;83.09
6194;BME280;3130;41.564;23.280;2023-04-04T12:39:29;97696.00;;;12.26;82.90
6194;BME280;3130;41.564;23.280;2023-04-04T12:41:59;97696.03;;;12.36;83.21
6194;BME280;3130;41.564;23.280;2023-04-04T12:44:29;97693.75;;;12.42;82.87
6194;BME280;3130;41.564;23.280;2023-04-04T12:46:56;97697.69;;;12.56;83.08
6194;BME280;3130;41.564;23.280;2023-04-04T12:49:27;97682.94;;;12.48;82.12
6194;BME280;3130;41.564;23.280;2023-04-04T12:51:56;97648.25;;;12.14;80.63
6194;BME280;3130;41.564;23.280;2023-04-04T12:54:29;97707.31;;;12.82;80.31
6194;BME280;3130;41.564;23.280;2023-04-04T12:56:57;97686.22;;;12.69;80.42
6194;BME280;3130;41.564;23.280;2023-04-04T12:59:28;97679.16;;;12.62;79.12
6194;BME280;3130;41.564;23.280;2023-04-04T13:01:56;97708.72;;;13.05;78.46
6194;BME280;3130;41.564;23.280;2023-04-04T13:04:23;97712.25;;;12.95;78.32
6194;BME280;3130;41.564;23.280;2023-04-04T13:06:51;97686.59;;;12.84;78.37
6194;BME280;3130;41.564;23.280;2023-04-04T13:09:19;97716.19;;;13.08;77.41
6194;BME280;3130;41.564;23.280;2023-04-04T13:12:05;97714.81;;;13.13;78.00
6194;BME280;3130;41.564;23.280;2023-04-04T13:15:00;97718.88;;;13.07;77.71
6194;BME280;3130;41.564;23.280;2023-04-04T13:17:40;97721.13;;;12.81;77.97